Latest Weather Observations for Truscott

IDD60801

Issued at 7:01 pm CST Friday 20 January 2017 (issued every 30 minutes, with the page automatically refreshed every 10 minutes)

About weather observations | Map of weather stations | Latest weather observations for NT | Other Formats
Station Details ID: 001020 Name: TRUSCOTT Lat: -14.09 Lon: 126.39 Height: 51.0 m
Data from the previous 72 hours. | See also: Recent months at Truscott
Date/Time
CST
Temp
°C
App
Temp
°C
Dew
Point
°C
Rel
Hum
%
Delta-T
°C
Wind Press
QNH
hPa
Press
MSL
hPa
Rain since
9am
mm
Dir  Spd
km/h
Gust
km/h
Spd
kts
Gust
kts
20/07:00pm 28.5 30.8 23.4 74 3.5 W 17 28 9 15 1006.4 1006.0 0.6
20/06:30pm 28.8 31.0 23.2 71 3.8 WNW 17 24 9 13 1006.1 1005.7 0.6
20/06:00pm 28.8 31.7 24.4 77 3.1 W 17 24 9 13 1005.9 1005.5 0.6
20/05:32pm 28.2 31.1 24.4 80 2.6 W 17 26 9 14 1005.8 1005.4 0.6
20/05:30pm 28.1 30.9 24.3 80 2.6 WSW 17 26 9 14 1005.8 1005.4 0.6
20/05:10pm 28.3 31.3 24.7 81 2.5 W 17 22 9 12 1005.9 1005.5 0.6
20/05:00pm 28.1 31.3 24.3 80 2.6 WNW 15 20 8 11 1006.0 1005.6 0.6
20/04:30pm 27.7 30.5 24.3 82 2.4 WNW 17 24 9 13 1006.3 1005.9 0.6
20/04:00pm 26.9 29.6 24.2 85 1.9 NW 17 24 9 13 1006.6 1006.2 0.6
20/03:30pm 26.0 28.9 23.9 88 1.4 NW 15 20 8 11 1006.8 1006.4 0.6
20/03:00pm 28.4 30.3 23.8 76 3.2 NW 20 32 11 17 1007.0 1006.6 0.0
20/02:30pm 28.8 31.4 23.9 75 3.4 NNW 17 30 9 16 1007.3 1006.9 0.0
20/02:00pm 28.6 30.7 23.1 72 3.8 NW 17 28 9 15 1007.2 1006.8 0.0
20/01:30pm 29.4 31.8 23.6 71 4.0 WNW 17 30 9 16 1007.5 1007.1 0.0
20/01:20pm 28.4 31.5 24.8 81 2.5 NNW 17 24 9 13 1007.6 1007.2 0.0
20/01:10pm 28.2 32.1 24.8 82 2.4 NNW 13 24 7 13 1007.8 1007.4 0.0
20/01:00pm 28.2 31.3 24.8 82 2.4 NNW 17 30 9 16 1007.9 1007.5 0.0
20/12:30pm 28.4 31.4 24.0 77 3.1 NW 15 26 8 14 1008.3 1007.9 0.0
20/12:00pm 27.5 30.1 23.3 78 2.9 NW 15 22 8 12 1008.6 1008.2 0.0
20/11:30am 27.7 29.8 24.1 81 2.5 NNW 20 30 11 16 1008.6 1008.2 0.0
20/11:00am 28.4 30.9 24.4 79 2.8 NNW 19 35 10 19 1008.7 1008.3 0.0
20/10:30am 28.4 30.4 24.0 77 3.1 NNW 20 28 11 15 1008.6 1008.2 -
20/10:00am 28.7 31.2 23.8 75 3.4 NNW 17 24 9 13 1008.7 1008.3 -
20/09:30am 28.3 31.2 24.5 80 2.7 NNW 17 30 9 16 1008.3 1007.9 -
20/09:00am 28.6 33.1 24.6 79 2.8 NW 9 15 5 8 1008.0 1007.6 -
20/08:30am 28.1 32.9 25.1 84 2.1 NW 9 17 5 9 1008.0 1007.6 -
20/08:00am 26.5 33.1 25.8 96 0.5 NNE 2 6 1 3 1007.7 1007.3 -
20/07:30am 25.9 32.4 25.6 98 0.2 NE 2 7 1 4 1007.4 1007.0 -
20/07:28am 25.9 32.4 25.6 98 0.2 NE 2 7 1 4 1007.4 1007.0 -
20/07:17am 25.8 32.6 25.5 98 0.2 CALM 0 0 0 0 1007.4 1007.0 -
20/07:00am 25.8 32.2 25.5 98 0.2 SSE 2 6 1 3 1007.0 1006.6 -
20/06:30am 25.7 32.3 25.2 97 0.4 CALM 0 0 0 0 1006.5 1006.1 -
20/06:00am 25.7 32.2 25.0 96 0.5 CALM 0 0 0 0 1006.1 1005.7 -
20/05:30am 25.9 32.4 25.0 95 0.6 CALM 0 0 0 0 1006.1 1005.7 -
20/05:00am 26.2 32.2 24.8 92 1.0 NNW 2 6 1 3 1006.1 1005.7 -
20/04:30am 26.5 31.3 25.1 92 1.0 NNW 9 15 5 8 1006.2 1005.8 0.6
20/04:00am 26.4 31.2 24.2 88 1.5 NW 6 9 3 5 1006.5 1006.1 -
20/03:30am 26.1 30.9 24.1 89 1.4 NW 6 9 3 5 1006.8 1006.4 -
20/03:00am 26.1 30.4 24.3 90 1.2 NNW 9 13 5 7 1006.8 1006.4 -
20/02:30am 25.9 31.0 25.0 95 0.6 SW 7 9 4 5 1006.8 1006.4 -
20/02:00am 25.5 30.4 24.6 95 0.6 WSW 7 11 4 6 1007.1 1006.7 -
20/01:30am 25.6 29.9 24.2 92 1.0 WSW 9 17 5 9 1007.2 1006.8 -
20/01:00am 26.4 28.3 23.5 84 2.0 WSW 19 30 10 16 1007.4 1007.0 -
20/12:30am 27.0 31.2 23.5 81 2.4 NW 7 11 4 6 1007.7 1007.3 -
20/12:00am 27.2 30.8 24.3 84 2.0 NW 13 20 7 11 1008.0 1007.6 -
 
Date/Time
CST
Temp
°C
App
Temp
°C
Dew
Point
°C
Rel
Hum
%
Delta-T
°C
Wind Press
QNH
hPa
Press
MSL
hPa
Rain since
9am
mm
Dir  Spd
km/h
Gust
km/h
Spd
kts
Gust
kts
19/11:30pm 26.9 30.4 22.9 79 2.7 NW 9 11 5 6 1008.2 1007.8 -
19/11:00pm 26.9 29.6 22.9 79 2.7 NW 13 20 7 11 1008.4 1008.0 -
19/10:30pm 27.8 31.7 24.2 81 2.5 NW 11 20 6 11 1008.3 1007.9 0.0
19/10:00pm 27.7 32.0 24.3 82 2.4 WNW 9 15 5 8 1008.2 1007.8 -
19/09:30pm 27.8 31.6 24.0 80 2.6 WNW 11 17 6 9 1007.8 1007.4 -
19/09:00pm 27.9 30.7 23.7 78 2.9 WNW 15 22 8 12 1007.4 1007.0 -
19/08:30pm 27.9 31.5 24.3 81 2.5 WNW 13 20 7 11 1007.0 1006.6 -
19/08:00pm 27.5 32.8 24.9 86 1.8 WSW 6 9 3 5 1006.6 1006.2 -
19/07:30pm 27.7 32.5 24.5 83 2.2 SW 7 13 4 7 1006.1 1005.7 -
19/07:00pm 28.2 31.8 24.4 80 2.6 WSW 13 20 7 11 1005.7 1005.3 -
19/06:30pm 28.4 31.4 24.0 77 3.1 W 15 20 8 11 1005.4 1005.0 -
19/06:00pm 28.8 32.2 24.1 76 3.3 W 13 20 7 11 1005.4 1005.0 -
19/05:30pm 28.6 32.7 24.6 79 2.8 WSW 11 15 6 8 1005.5 1005.1 -
19/05:00pm 28.3 32.5 24.7 81 2.5 W 11 17 6 9 1005.8 1005.4 -
19/04:30pm 28.2 31.6 24.6 81 2.5 NW 15 26 8 14 1006.2 1005.8 -
19/10:00am 24.8 29.1 21.9 84 1.9 SE 2 6 1 3 1010.3 1009.9 18.6
19/09:30am 24.5 29.2 22.0 86 1.7 CALM 0 0 0 0 1010.7 1010.3 18.6
19/09:00am 24.2 27.5 22.6 91 1.1 S 9 11 5 6 1010.7 1010.3 18.6
19/08:30am 23.9 27.0 22.9 94 0.7 SSW 11 17 6 9 1010.7 1010.3 18.6
19/08:00am 23.9 26.6 23.4 97 0.3 SSW 15 20 8 11 1010.4 1010.0 18.6
19/07:30am 24.0 27.8 24.0 100 0.0 SSW 11 17 6 9 1010.2 1009.8 18.6
19/07:00am 23.8 26.2 23.6 99 0.1 SW 17 22 9 12 1010.1 1009.7 18.4
19/06:59am 23.7 26.0 23.5 99 0.1 SW 17 22 9 12 1010.1 1009.7 18.4
19/06:37am 24.3 25.7 22.9 92 0.9 WSW 20 54 11 29 1009.9 1009.5 16.2
19/06:30am 27.4 32.1 25.0 87 1.7 WSW 9 19 5 10 1009.6 1009.2 14.0
19/06:00am 27.3 31.9 24.7 86 1.8 W 9 13 5 7 1009.0 1008.6 14.0
19/05:30am 27.1 32.0 24.7 87 1.7 WNW 7 9 4 5 1008.6 1008.2 14.0
19/05:00am 27.0 32.0 24.8 88 1.5 WNW 7 9 4 5 1008.5 1008.1 14.0
19/04:30am 27.0 32.0 24.8 88 1.5 WNW 7 9 4 5 1008.3 1007.9 14.0
19/04:00am 27.0 32.1 24.6 87 1.7 W 6 7 3 4 1008.6 1008.2 14.0
19/03:30am 27.0 32.1 25.0 89 1.4 WNW 7 7 4 4 1008.6 1008.2 14.0
19/03:00am 27.1 32.2 24.6 86 1.7 WNW 6 7 3 4 1008.5 1008.1 14.0
19/02:30am 27.2 32.1 24.3 84 2.0 WNW 6 7 3 4 1008.5 1008.1 14.0
19/02:00am 27.0 31.7 23.9 83 2.1 NW 6 7 3 4 1008.8 1008.4 14.0
19/01:30am 26.8 31.6 24.1 85 1.9 NW 6 7 3 4 1009.0 1008.6 14.0
19/01:00am 26.7 31.5 24.2 86 1.7 NW 6 9 3 5 1009.2 1008.8 14.0
19/12:30am 26.4 31.5 24.6 90 1.3 NNW 6 9 3 5 1009.4 1009.0 14.0
19/12:00am 26.3 32.8 25.1 93 0.8 CALM 0 0 0 0 1009.5 1009.1 14.0
 
Date/Time
CST
Temp
°C
App
Temp
°C
Dew
Point
°C
Rel
Hum
%
Delta-T
°C
Wind Press
QNH
hPa
Press
MSL
hPa
Rain since
9am
mm
Dir  Spd
km/h
Gust
km/h
Spd
kts
Gust
kts
18/11:30pm 26.8 31.9 24.6 88 1.5 WNW 6 7 3 4 1009.7 1009.3 14.0
18/11:00pm 26.9 31.9 24.5 87 1.7 WNW 6 9 3 5 1009.7 1009.3 14.0
18/10:30pm 27.0 32.0 24.5 86 1.7 WNW 6 7 3 4 1009.7 1009.3 14.0
18/10:00pm 27.0 31.8 24.5 86 1.7 WNW 7 11 4 6 1009.5 1009.1 14.0
18/09:30pm 27.1 31.9 24.4 85 1.9 W 7 9 4 5 1009.3 1008.9 14.0
18/09:00pm 27.1 31.9 24.4 85 1.9 W 7 11 4 6 1009.0 1008.6 14.0
18/08:30pm 27.1 31.6 24.0 83 2.1 WSW 7 9 4 5 1008.7 1008.3 14.0
18/08:00pm 27.1 31.8 24.9 88 1.5 WSW 9 13 5 7 1008.5 1008.1 14.0
18/07:30pm 26.5 31.9 25.5 94 0.7 WSW 7 11 4 6 1008.3 1007.9 14.0
18/07:00pm 26.3 29.3 24.7 91 1.1 W 17 28 9 15 1007.7 1007.3 14.0
18/06:30pm 26.3 28.4 23.8 86 1.7 SW 19 32 10 17 1007.2 1006.8 13.8
18/06:00pm 27.8 30.5 24.2 81 2.5 W 17 26 9 14 1006.9 1006.5 13.6
18/05:30pm 28.0 30.1 23.8 78 2.9 W 19 26 10 14 1007.0 1006.6 13.6
18/05:00pm 26.6 31.3 25.0 91 1.1 W 9 13 5 7 1006.5 1006.1 13.6
18/04:30pm 26.0 29.6 24.4 91 1.1 SW 13 20 7 11 1006.8 1006.4 13.6
18/04:09pm 26.0 30.6 26.0 100 0.0 SW 13 20 7 11 1007.1 1006.7 13.6
18/04:00pm 25.9 30.8 25.9 100 0.0 SW 11 17 6 9 1007.1 1006.7 13.6
18/03:44pm 26.3 30.9 26.0 98 0.2 W 13 33 7 18 1007.2 1006.8 11.8
18/03:34pm 26.2 30.1 25.5 96 0.5 WNW 15 20 8 11 1007.2 1006.8 10.2
18/03:30pm 26.0 29.4 25.3 96 0.5 NW 17 24 9 13 1007.4 1007.0 10.2
18/03:13pm 26.2 28.2 24.6 91 1.1 WNW 22 43 12 23 1007.5 1007.1 6.6
18/03:00pm 28.1 32.9 26.3 90 1.3 W 13 24 7 13 1007.3 1006.9 3.4
18/02:31pm 29.0 32.5 25.4 81 2.5 W 17 28 9 15 1007.5 1007.1 2.6
18/02:30pm 29.0 32.7 25.2 80 2.7 WNW 15 28 8 15 1007.5 1007.1 2.6
18/02:14pm 26.4 28.0 23.3 83 2.1 WNW 20 43 11 23 1007.9 1007.5 2.4
18/02:00pm 29.8 32.4 24.0 71 4.0 W 17 24 9 13 1007.9 1007.5 0.0
18/01:30pm 30.5 32.9 24.2 69 4.4 W 19 32 10 17 1008.2 1007.8 0.0
18/01:00pm 29.6 31.7 23.8 71 4.0 WNW 19 28 10 15 1008.4 1008.0 0.0
18/12:30pm 29.8 31.7 23.5 69 4.4 WNW 19 28 10 15 1008.7 1008.3 0.0
18/12:00pm 29.3 31.7 23.7 72 3.9 WNW 17 28 9 15 1009.2 1008.8 0.0
18/11:30am 29.3 31.2 23.5 71 4.0 W 19 30 10 16 1009.7 1009.3 0.0
18/11:00am 28.6 30.9 23.5 74 3.5 WNW 17 24 9 13 1009.7 1009.3 0.0
18/10:30am 28.5 30.4 23.4 74 3.5 W 19 30 10 16 1009.7 1009.3 -
18/10:26am 28.4 30.6 24.0 77 3.0 W 19 30 10 16 1009.7 1009.3 -
18/10:11am 28.2 31.3 24.8 82 2.4 WNW 17 24 9 13 1009.6 1009.2 -
18/10:00am 27.8 30.8 24.6 83 2.2 WNW 17 24 9 13 1009.6 1009.2 -
18/09:30am 28.1 30.6 24.5 81 2.5 W 19 26 10 14 1009.5 1009.1 -
18/09:00am 27.6 30.5 24.4 83 2.2 W 17 26 9 14 1009.4 1009.0 -
18/08:30am 26.8 29.7 23.9 84 2.0 W 15 22 8 12 1009.4 1009.0 28.6
18/08:00am 26.2 30.6 24.4 90 1.2 W 9 15 5 8 1009.1 - 28.6
18/07:30am 25.7 29.8 24.5 93 0.8 WSW 11 19 6 10 1008.7 1008.3 28.6
18/07:26am 25.6 30.1 24.6 94 0.7 WSW 9 13 5 7 1008.7 1008.3 28.6
18/07:00am 25.5 29.6 24.6 95 0.6 WSW 11 15 6 8 1008.5 1008.1 28.6
18/06:30am 25.4 28.7 24.5 95 0.6 W 15 20 8 11 1008.2 1007.8 28.6
18/06:16am 25.4 28.7 24.5 95 0.6 W 15 22 8 12 1008.2 1007.8 28.6
18/06:00am 25.1 29.3 24.1 94 0.7 WNW 9 17 5 9 1008.1 1007.7 28.6
18/05:30am 24.7 29.1 24.4 98 0.2 WNW 9 13 5 7 1007.7 1007.3 28.6
18/05:00am 24.7 27.8 24.2 97 0.3 WNW 15 22 8 12 1007.7 1007.3 28.4
18/04:30am 25.0 28.4 24.7 98 0.2 WNW 15 20 8 11 1007.9 1007.5 27.4
18/04:00am 24.9 27.6 24.2 96 0.5 WNW 17 26 9 14 1008.5 1008.1 26.2
18/03:30am 25.1 28.6 24.8 98 0.2 WNW 15 24 8 13 1008.3 1007.9 24.4
18/03:00am 25.4 29.5 25.2 99 0.1 W 13 17 7 9 1008.2 1007.8 23.2
18/02:30am 25.4 30.4 25.4 100 0.0 WNW 9 11 5 6 1008.1 1007.7 22.0
18/02:00am 24.7 29.6 24.7 100 0.0 WNW 7 9 4 5 1008.4 1008.0 21.0
18/01:30am 24.6 29.5 24.6 100 0.0 NW 7 11 4 6 1008.7 1008.3 19.6
18/01:02am 24.3 28.9 24.1 99 0.1 NW 7 13 4 7 1009.1 1008.7 18.4
18/01:00am 24.3 28.9 24.1 99 0.1 NW 7 11 4 6 1009.1 1008.7 18.0
18/12:30am 25.0 28.4 24.7 98 0.2 WNW 15 22 8 12 1009.6 1009.2 11.8
18/12:22am 25.3 29.9 24.8 97 0.3 WNW 9 13 5 7 1009.8 1009.4 10.8
18/12:00am 25.3 30.2 24.4 95 0.6 SW 6 7 3 4 1009.6 1009.2 10.6
 
Date/Time
CST
Temp
°C
App
Temp
°C
Dew
Point
°C
Rel
Hum
%
Delta-T
°C
Wind Press
QNH
hPa
Press
MSL
hPa
Rain since
9am
mm
Dir  Spd
km/h
Gust
km/h
Spd
kts
Gust
kts
17/11:42pm 25.5 30.8 25.0 97 0.3 SSW 6 9 3 5 1009.7 1009.3 10.6
17/11:32pm 25.7 31.0 25.2 97 0.3 SW 7 11 4 6 1009.6 1009.2 10.6
17/11:30pm 25.6 30.3 24.9 96 0.5 SW 9 11 5 6 1009.5 1009.1 10.6
17/11:24pm 25.8 31.0 25.1 96 0.5 SW 7 11 4 6 1009.6 1009.2 10.2
17/11:13pm 25.9 31.7 25.2 96 0.5 W 4 9 2 5 1009.8 1009.4 10.0
17/11:00pm 26.1 32.5 24.9 93 0.8 CALM 0 0 0 0 1009.4 1009.0 9.2
17/10:30pm 26.4 31.1 25.0 92 1.0 WSW 9 17 5 9 1009.6 1009.2 9.0
17/10:00pm 27.7 34.3 25.3 87 1.7 CALM 0 0 0 0 1009.0 1008.6 8.8
17/09:30pm 27.8 32.7 24.6 83 2.2 NW 7 11 4 6 1008.3 1007.9 8.8
17/09:00pm 28.0 33.0 25.4 86 1.8 WNW 9 13 5 7 1008.2 1007.8 8.8

Other Formats:

Comma delimited format used in spreadsheet applications
http://www.bom.gov.au/fwo/IDD60801/IDD60801.95101.axf

JavaScript Object Notation format (JSON) in row-major order
http://www.bom.gov.au/fwo/IDD60801/IDD60801.95101.json